createdAt,value
2022-12-09T00:03:26.536Z,3.58
2022-12-09T00:08:28.564Z,7.65
2022-12-09T00:13:30.574Z,1.65
2022-12-09T00:18:32.436Z,2.08
2022-12-09T00:23:34.472Z,2.00
2022-12-09T00:28:36.487Z,2.70
2022-12-09T00:33:38.569Z,5.47
2022-12-09T00:38:40.944Z,1.77
2022-12-09T00:43:43.761Z,5.90
2022-12-09T00:48:46.250Z,3.65
2022-12-09T00:53:48.311Z,2.25
2022-12-09T00:58:50.282Z,2.47
2022-12-09T01:03:52.582Z,1.48
2022-12-09T01:08:55.111Z,1.58
2022-12-09T01:14:02.719Z,4.60
2022-12-09T01:19:07.880Z,4.15
2022-12-09T01:24:10.968Z,2.75
2022-12-09T01:29:12.781Z,2.17
2022-12-09T01:34:14.573Z,1.45
2022-12-09T01:39:16.944Z,1.95
2022-12-09T01:44:23.217Z,0.80
2022-12-09T01:49:48.362Z,2.63
2022-12-09T01:54:52.894Z,2.28
2022-12-09T01:59:55.116Z,1.10
2022-12-09T02:04:57.359Z,1.83
2022-12-09T02:09:59.962Z,1.88
2022-12-09T02:15:06.038Z,2.35
2022-12-09T02:20:29.490Z,9.85
2022-12-09T02:25:38.917Z,2.17
2022-12-09T02:31:14.305Z,2.38
2022-12-09T02:36:19.660Z,2.70
2022-12-09T02:41:27.809Z,2.33
2022-12-09T02:46:30.957Z,2.28
2022-12-09T02:51:36.162Z,3.28
2022-12-09T02:56:40.757Z,3.88
2022-12-09T03:01:51.515Z,1.17
2022-12-09T03:06:56.614Z,1.63
2022-12-09T03:12:02.259Z,1.83
2022-12-09T03:17:24.317Z,0.93
2022-12-09T03:22:29.798Z,1.90
2022-12-09T03:27:57.182Z,0.63
2022-12-09T03:32:59.613Z,3.13
2022-12-09T03:38:05.681Z,2.00
2022-12-09T03:43:23.720Z,3.22
2022-12-09T03:48:26.361Z,5.20
2022-12-09T03:53:49.797Z,2.60
2022-12-09T03:58:55.383Z,1.73
2022-12-09T04:03:58.310Z,9.32
2022-12-09T04:09:02.587Z,1.27
2022-12-09T04:14:06.326Z,1.33
2022-12-09T04:19:11.151Z,3.50
2022-12-09T04:24:13.662Z,1.30
2022-12-09T04:29:15.986Z,1.92
2022-12-09T04:34:18.090Z,1.80
2022-12-09T04:39:20.034Z,3.03
2022-12-09T04:44:22.677Z,1.45
2022-12-09T04:49:25.045Z,1.98
2022-12-09T04:54:27.101Z,1.88
2022-12-09T04:59:31.729Z,2.03
2022-12-09T05:04:33.710Z,1.13
2022-12-09T05:09:36.033Z,1.52
2022-12-09T05:14:38.475Z,2.33
2022-12-09T05:19:40.530Z,1.73
2022-12-09T05:24:44.507Z,0.73
2022-12-09T05:29:47.074Z,1.02
2022-12-09T05:34:49.150Z,1.80
2022-12-09T05:39:51.441Z,1.08
2022-12-09T05:44:55.324Z,1.02
2022-12-09T05:50:00.321Z,1.15
2022-12-09T05:55:07.219Z,1.92
2022-12-09T06:00:10.243Z,2.42
2022-12-09T06:05:12.947Z,0.82
2022-12-09T06:10:16.110Z,2.63
2022-12-09T06:15:21.622Z,1.85
2022-12-09T06:20:24.078Z,1.80
2022-12-09T06:25:26.213Z,3.10
2022-12-09T06:30:28.553Z,1.88
2022-12-09T06:35:30.915Z,2.08
2022-12-09T06:40:33.493Z,1.05
2022-12-09T06:45:36.666Z,2.42
2022-12-09T06:50:39.179Z,0.95
2022-12-09T06:55:41.112Z,1.00
2022-12-09T07:00:43.638Z,1.25
2022-12-09T07:05:46.205Z,1.40
2022-12-09T07:10:53.238Z,1.25
2022-12-09T07:15:58.461Z,1.83
2022-12-09T07:21:07.578Z,2.28
2022-12-09T07:26:10.185Z,2.38
2022-12-09T07:31:27.030Z,2.20
2022-12-09T07:36:31.542Z,2.28
2022-12-09T07:41:33.849Z,2.88
2022-12-09T07:46:36.377Z,2.83
2022-12-09T07:51:39.541Z,8.00
2022-12-09T07:56:42.252Z,2.67
2022-12-09T08:01:44.816Z,1.50
2022-12-09T08:06:47.220Z,1.85
2022-12-09T08:11:49.546Z,1.10
2022-12-09T08:16:51.731Z,1.55
2022-12-09T08:21:54.946Z,2.50
2022-12-09T08:26:57.868Z,7.05
2022-12-09T08:32:00.108Z,4.13
2022-12-09T08:37:02.712Z,3.25
2022-12-09T08:42:05.587Z,2.35
2022-12-09T08:47:08.232Z,8.70
2022-12-09T08:52:10.766Z,1.38
2022-12-09T08:57:13.006Z,3.50
2022-12-09T09:02:15.414Z,2.90
2022-12-09T09:07:17.788Z,1.88
2022-12-09T09:12:20.189Z,2.63
2022-12-09T09:17:23.596Z,7.22
2022-12-09T09:22:27.288Z,12.95
2022-12-09T09:27:29.786Z,26.55
2022-12-09T09:32:33.133Z,6.97
2022-12-09T09:37:36.290Z,8.85
2022-12-09T09:42:47.813Z,8.27
2022-12-09T09:48:01.088Z,13.80
2022-12-09T09:53:16.202Z,19.67
2022-12-09T09:58:36.720Z,19.55
2022-12-09T10:04:09.096Z,8.07
2022-12-09T10:09:22.657Z,27.08
2022-12-09T10:14:52.351Z,13.60
2022-12-09T10:20:01.124Z,5.95
2022-12-09T10:25:17.949Z,9.00
2022-12-09T10:30:20.921Z,8.93
2022-12-09T10:35:26.152Z,10.50
2022-12-09T10:40:47.418Z,9.60
2022-12-09T10:51:22.260Z,3.97
2022-12-09T10:56:30.783Z,12.95
2022-12-09T11:01:51.965Z,9.25
2022-12-09T11:07:00.155Z,10.27
2022-12-09T11:12:06.659Z,25.20
2022-12-09T11:17:22.712Z,9.85
2022-12-09T11:22:39.548Z,13.18
2022-12-09T11:27:53.994Z,8.20
2022-12-09T11:32:56.993Z,17.52
2022-12-09T11:38:04.031Z,12.75
2022-12-09T11:43:05.870Z,23.23
2022-12-09T11:48:35.037Z,10.95
2022-12-09T11:53:42.457Z,17.50
2022-12-09T11:59:00.575Z,12.27
2022-12-09T12:04:09.974Z,11.52
2022-12-09T12:09:26.697Z,10.80
2022-12-09T12:14:30.818Z,15.98
2022-12-09T12:19:35.666Z,9.75
2022-12-09T12:25:02.658Z,11.32
2022-12-09T12:30:20.822Z,9.90
2022-12-09T12:35:25.470Z,12.25
2022-12-09T12:40:45.714Z,9.23
2022-12-09T12:46:16.232Z,6.22
2022-12-09T12:51:28.781Z,10.73
2022-12-09T12:57:06.468Z,6.53
2022-12-09T13:02:48.238Z,9.88
2022-12-09T13:07:56.394Z,15.43
2022-12-09T13:13:01.849Z,6.20
2022-12-09T13:18:07.515Z,5.68
2022-12-09T13:23:46.533Z,4.90
2022-12-09T13:29:02.854Z,10.45
2022-12-09T13:34:14.133Z,8.73
2022-12-09T13:39:40.691Z,10.88
2022-12-09T13:44:42.738Z,3.67
2022-12-09T13:49:56.065Z,4.93
2022-12-09T13:54:58.431Z,3.83
2022-12-09T14:00:05.872Z,6.70
2022-12-09T14:05:26.302Z,3.60
2022-12-09T14:10:47.852Z,5.63
2022-12-09T14:16:27.723Z,3.47
2022-12-09T14:21:31.668Z,4.40
2022-12-09T14:26:53.710Z,3.85
2022-12-09T14:32:03.309Z,3.58
2022-12-09T14:37:19.593Z,3.42
2022-12-09T14:42:59.944Z,2.88
2022-12-09T14:48:08.514Z,2.63
2022-12-09T14:53:21.883Z,3.22
2022-12-09T14:58:26.331Z,1.73
2022-12-09T15:03:35.441Z,3.30
2022-12-09T15:08:42.972Z,3.08
2022-12-09T15:13:48.293Z,2.50
2022-12-09T15:18:51.738Z,4.43
2022-12-09T15:23:53.902Z,2.50
2022-12-09T15:28:56.861Z,2.47
2022-12-09T15:34:00.661Z,2.83
2022-12-09T15:39:03.981Z,2.65
2022-12-09T15:44:13.828Z,2.85
2022-12-09T15:49:21.394Z,1.98
2022-12-09T15:54:29.734Z,5.90
2022-12-09T15:59:35.766Z,2.38
2022-12-09T16:04:45.150Z,2.53
2022-12-09T16:10:05.892Z,2.20
2022-12-09T16:15:11.771Z,3.33
2022-12-09T16:20:31.670Z,2.80
2022-12-09T16:25:47.066Z,2.40
2022-12-09T16:30:51.013Z,2.40
2022-12-09T16:36:07.442Z,2.53
2022-12-09T16:41:12.432Z,3.00
2022-12-09T16:46:36.325Z,2.78
2022-12-09T16:51:39.263Z,2.67
2022-12-09T16:56:40.981Z,2.55
2022-12-09T17:01:43.173Z,2.83
2022-12-09T17:06:45.683Z,3.53
2022-12-09T17:11:49.356Z,2.33
2022-12-09T17:16:51.483Z,3.20
2022-12-09T17:21:53.303Z,2.22
2022-12-09T17:26:55.321Z,1.98
2022-12-09T17:31:57.318Z,1.92
2022-12-09T17:36:59.893Z,2.88
2022-12-09T17:42:01.900Z,2.25
2022-12-09T17:47:04.300Z,2.92
2022-12-09T17:52:06.499Z,2.70
2022-12-09T17:57:08.603Z,2.38
2022-12-09T18:02:11.509Z,2.30
2022-12-09T18:07:13.402Z,2.08
2022-12-09T18:12:15.294Z,2.28
2022-12-09T18:17:17.243Z,2.00
2022-12-09T18:22:19.189Z,1.73
2022-12-09T18:27:21.125Z,2.40
2022-12-09T18:32:23.518Z,2.20
2022-12-09T18:37:26.985Z,1.92
2022-12-09T18:42:28.926Z,2.58
2022-12-09T18:47:30.735Z,2.42
2022-12-09T18:52:32.513Z,2.45
2022-12-09T18:57:34.330Z,2.95
2022-12-09T19:02:36.271Z,1.52
2022-12-09T19:07:38.358Z,2.10
2022-12-09T19:12:50.586Z,2.22
2022-12-09T19:17:55.809Z,2.47
2022-12-09T19:22:57.976Z,2.03
2022-12-09T19:27:59.817Z,2.33
2022-12-09T19:33:01.832Z,2.05
2022-12-09T19:38:03.831Z,3.08
2022-12-09T19:43:05.830Z,3.25
2022-12-09T19:48:07.654Z,2.45
2022-12-09T19:53:09.780Z,2.75
2022-12-09T19:58:11.641Z,1.60
2022-12-09T20:03:13.878Z,2.10
2022-12-09T20:08:15.827Z,2.22
2022-12-09T20:13:17.842Z,2.33
2022-12-09T20:18:19.887Z,2.03
2022-12-09T20:23:21.714Z,2.25
2022-12-09T20:28:23.535Z,3.05
2022-12-09T20:33:25.505Z,2.50
2022-12-09T20:38:27.699Z,1.75
2022-12-09T20:43:31.101Z,2.53
2022-12-09T20:48:33.069Z,2.90
2022-12-09T20:53:36.291Z,2.85
2022-12-09T20:58:39.652Z,1.73
2022-12-09T21:03:42.595Z,2.42
2022-12-09T21:08:45.132Z,2.25
2022-12-09T21:13:50.476Z,2.25
2022-12-09T21:18:54.427Z,2.05
2022-12-09T21:23:56.668Z,2.70
2022-12-09T21:29:00.629Z,1.98
2022-12-09T21:34:05.042Z,3.53
2022-12-09T21:39:07.697Z,2.65
2022-12-09T21:44:14.790Z,2.97
2022-12-09T21:49:16.682Z,3.10
2022-12-09T21:54:18.620Z,3.40
2022-12-09T21:59:21.093Z,3.15
2022-12-09T22:04:22.861Z,6.88
2022-12-09T22:09:24.887Z,3.90
2022-12-09T22:14:27.122Z,2.20
2022-12-09T22:19:29.264Z,2.65
2022-12-09T22:24:31.121Z,6.15
2022-12-09T22:29:32.942Z,2.40
2022-12-09T22:34:34.781Z,1.92
2022-12-09T22:39:36.958Z,3.35
2022-12-09T22:44:39.371Z,3.30
2022-12-09T22:49:41.422Z,2.65
2022-12-09T22:54:43.423Z,8.60
2022-12-09T22:59:45.356Z,2.85
2022-12-09T23:04:47.300Z,3.25
2022-12-09T23:09:49.309Z,2.83
2022-12-09T23:14:51.309Z,7.57
2022-12-09T23:19:53.431Z,3.20
2022-12-09T23:24:55.219Z,3.80
2022-12-09T23:29:57.228Z,4.07
2022-12-09T23:35:03.075Z,3.22
2022-12-09T23:40:08.725Z,2.97
2022-12-09T23:45:10.958Z,5.28
2022-12-09T23:50:12.953Z,3.08
2022-12-09T23:55:15.006Z,3.85
